Terminal Aerodrome Forecast
Issued by NWS Greer, SC

Home | Current Version | Previous Version | Text Only | Print | Product List | Glossary On
Versions: 1 2 3 4 5 6 7 8 9 10 11 12 13 14 15 16 17 18 19 20 21 22 23 24 25 26 27 28 29 30 31
000
FTUS42 KGSP 031732
TAFGSP
TAF
KGSP 031732Z 0318/0418 08010KT P6SM VCSH BKN024 BKN035 BKN045
     FM031900 06006KT P6SM VCTS BKN035CB
     FM040000 06007KT P6SM VCTS OVC025CB
     FM040200 05007KT P6SM OVC008
     FM041700 05004KT P6SM BKN025=

USA.gov is the U.S. government's official web portal to all federal, state and local government web resources and services.